Ship Status Report: callsign IDDEU03

sailwx.info

Track history (hours):
 
Tides and Currents Weather Stations Pressure Air Temp Water Temp Dewpoint Dewpoint Depression Visibility Wind Speed Wind Dir Waves Ship Positions

Callsign IDDEU03 (name unknown)

Last reported at 2018-Jun-29 17:00 UTC. Time now 2018-Aug-20 16:18 UTC.
Position N 46°48' W 056°12'.
Warning: this ship's position is 51 days out of date.

Barometer 1020.2 mb

Date/timePositionNaut miles runAvg speedWind from/ knotsBaromVisibWave heightAir tempDewpointWater temp
2018-Jun-29 17:00N 46°48' W 056°12'0 0.0 1020.2
2018-Jun-29 16:00N 46°48' W 056°12'0 0.0 1021.3
2018-Jun-29 15:00N 46°48' W 056°12'0 0.0 1021.7
2018-Jun-29 14:00N 46°48' W 056°12'0 0.0 1022.2
2018-Jun-29 13:00N 46°48' W 056°12'0 0.0 1022.8
2018-Jun-29 12:00N 46°48' W 056°12'0 0.0 1023.3
2018-Jun-29 11:00N 46°48' W 056°12'0 0.0 1023.8
2018-Jun-29 10:00N 46°48' W 056°12'0 0.0 1024.1
2018-Jun-29 09:00N 46°48' W 056°12'0 0.0 1024.3
2018-Jun-29 08:00N 46°48' W 056°12'0 0.0 1024.7
2018-Jun-29 07:00N 46°48' W 056°12'0 0.0 1025.2
2018-Jun-29 06:00N 46°48' W 056°12'0 0.0 1025.4
2018-Jun-29 05:00N 46°48' W 056°12'0 0.0 1025.3
2018-Jun-29 04:00N 46°48' W 056°12'0 0.0 1025.5
2018-Jun-29 03:00N 46°48' W 056°12'0 0.0 1025.6
2018-Jun-29 02:00N 46°48' W 056°12'0 0.0 1025.6
2018-Jun-29 01:00N 46°48' W 056°12'0 0.0 1025.4
2018-Jun-29 00:00N 46°48' W 056°12'0 0.0 1024.8
2018-Jun-28 22:00N 46°48' W 056°12'0 0.0 1023.9
2018-Jun-28 20:00N 46°48' W 056°12'0 0.0 1022.7
2018-Jun-28 19:00N 46°48' W 056°12'0 0.0 1022.4
2018-Jun-28 18:00N 46°48' W 056°12'0 0.0 1021.9
2018-Jun-28 17:00N 46°48' W 056°12'0 0.0 1021.8
2018-Jun-28 16:00N 46°48' W 056°12'4 4.1 1021.1
2018-Jun-28 15:00N 46°48' W 056°06'8 8.2 1020.7
2018-Jun-28 14:00N 46°48' W 056°18'1010.2 1020.8
2018-Jun-28 13:00N 46°42' W 056°30'1413.7 1020.0
2018-Jun-28 12:00N 46°36' W 056°48'1010.2 1019.3
2018-Jun-28 11:00N 46°30' W 057°00'7 7.3 1018.8
2018-Jun-28 10:00N 46°24' W 057°06'4 4.1 1018.3
2018-Jun-28 09:00N 46°24' W 057°12'7 7.3 1018.0
2018-Jun-28 08:00N 46°18' W 057°18'1010.2 1017.7
2018-Jun-28 07:00N 46°12' W 057°30'1010.3 1017.2
2018-Jun-28 06:00N 46°06' W 057°42'1010.3 1016.9
2018-Jun-28 05:00N 46°00' W 057°54'4 4.2 1016.7
2018-Jun-28 04:00N 46°00' W 058°00'1010.3 1016.4
2018-Jun-28 03:00N 45°54' W 058°12'8 8.4 1015.9
2018-Jun-28 02:00N 45°54' W 058°24'4 4.2 1015.2
2018-Jun-28 01:00N 45°54' W 058°30'1010.3 1014.8
2018-Jun-28 00:00N 45°48' W 058°42'1312.7 1014.6
2018-Jun-27 23:00N 45°36' W 058°48'7 7.3 1014.8
2018-Jun-27 22:00N 45°30' W 058°54'1010.3 1014.5
2018-Jun-27 21:00N 45°24' W 059°06'4 4.2 1014.2
2018-Jun-27 20:00N 45°24' W 059°12'1010.3 1013.8
2018-Jun-27 19:00N 45°18' W 059°24'1010.4 1013.9
2018-Jun-27 18:00N 45°12' W 059°36'4 4.2 1014.1
2018-Jun-27 17:00N 45°12' W 059°42'1312.7 1013.7
2018-Jun-27 16:00N 45°12' W 060°00'1010.4 1013.8
2018-Jun-27 15:00N 45°18' W 060°12'0 0.0 1013.7
2018-Jun-27 14:00N 45°18' W 060°12'1514.7 1014.2
2018-Jun-27 13:00N 45°06' W 060°24'1312.7 1014.8
2018-Jun-27 12:00N 45°06' W 060°42'1010.4 1015.2
2018-Jun-27 11:00N 45°00' W 060°54'1010.4 1015.3
2018-Jun-27 10:00N 44°54' W 061°06'1414.1 1015.5
2018-Jun-27 09:00N 44°48' W 061°24'9 8.5 1015.9
2018-Jun-27 08:00N 44°48' W 061°36'7 7.4 1016.0
2018-Jun-27 07:00N 44°54' W 061°42'7 7.4 1015.7
2018-Jun-27 06:00N 44°48' W 061°48'4 4.3 1016.1
2018-Jun-27 05:00N 44°48' W 061°54'1010.4 1016.6
2018-Jun-27 04:00N 44°42' W 062°06'0 0.0 1017.4
2018-Jun-27 03:00N 44°42' W 062°06'1312.8 1017.9
2018-Jun-27 02:00N 44°42' W 062°24'1010.4 1018.1
2018-Jun-27 01:00N 44°36' W 062°36'4 4.3 1018.3
2018-Jun-27 00:00N 44°36' W 062°42'7 7.4 1017.4
2018-Jun-26 23:00N 44°42' W 062°36'0 0.0 1016.6
2018-Jun-26 22:00N 44°42' W 062°36'1010.4 1016.1
2018-Jun-26 21:00N 44°36' W 062°48'9 8.5 1016.2
2018-Jun-26 20:00N 44°36' W 063°00'6 6.0 1016.4
2018-Jun-26 19:00N 44°30' W 063°00'9 8.6 1016.5
2018-Jun-26 18:00N 44°30' W 063°12'1010.5 1016.9
2018-Jun-26 17:00N 44°24' W 063°24'7 7.4 1017.2
2018-Jun-26 16:00N 44°30' W 063°30'7 7.4 1017.4
2018-Jun-26 15:00N 44°36' W 063°36'0 0.0 1017.8
2018-Jun-26 14:00N 44°36' W 063°36'0 0.0 1017.9
2018-Jun-26 13:00N 44°36' W 063°36'0 0.0 1017.9
2018-Jun-26 12:00N 44°36' W 063°36'0 0.0 1018.0
2018-Jun-26 11:00N 44°36' W 063°36'0 0.0 1017.7
2018-Jun-26 10:00N 44°36' W 063°36'0 0.0 1017.0
2018-Jun-26 09:00N 44°36' W 063°36'0 0.0 1016.0
2018-Jun-26 08:00N 44°36' W 063°36'0 0.0 1015.0
2018-Jun-26 07:00N 44°36' W 063°36'0 0.0 1014.8
2018-Jun-26 06:00N 44°36' W 063°36'0 0.0 1014.5
2018-Jun-26 05:00N 44°36' W 063°36'0 0.0 1014.0
2018-Jun-26 04:00N 44°36' W 063°36'0 0.0 1013.5
2018-Jun-26 03:00N 44°36' W 063°36'0 0.0 1012.6
2018-Jun-26 02:00N 44°36' W 063°36'0 0.0 1011.6
2018-Jun-26 01:00N 44°36' W 063°36'0 0.0 1010.7
2018-Jun-26 00:00N 44°36' W 063°36'0 0.0 1009.4
2018-Jun-25 23:00N 44°36' W 063°36'0 0.0 1008.7
2018-Jun-25 22:00N 44°36' W 063°36'0 0.0 1007.8
2018-Jun-25 21:00N 44°36' W 063°36'0 0.0 1007.1
2018-Jun-25 20:00N 44°36' W 063°36'0 0.0 1006.2
2018-Jun-25 19:00N 44°36' W 063°36'0 0.0 1006.3
2018-Jun-25 18:00N 44°36' W 063°36'0 0.0 1006.4
2018-Jun-25 17:00N 44°36' W 063°36'0 0.0 1006.3
2018-Jun-25 16:00N 44°36' W 063°36'0 0.0 1007.0
2018-Jun-25 15:00N 44°36' W 063°36'0 0.0 1007.7
2018-Jun-25 14:00N 44°36' W 063°36'0 0.0 1007.5
2018-Jun-25 13:00N 44°36' W 063°36'0 0.0 1008.3
2018-Jun-25 12:00N 44°36' W 063°36'0 0.0 1008.5
2018-Jun-25 11:00N 44°36' W 063°36'0 0.0 1008.1
2018-Jun-25 10:00N 44°36' W 063°36'0 0.0 1008.8
2018-Jun-25 09:00N 44°36' W 063°36'0 0.0 1009.0
2018-Jun-25 08:00N 44°36' W 063°36'0 0.0 1009.3
2018-Jun-25 07:00N 44°36' W 063°36'0 0.0 1009.0
2018-Jun-25 06:00N 44°36' W 063°36'0 0.0 1009.0
2018-Jun-25 05:00N 44°36' W 063°36'0 0.0 1009.6
2018-Jun-25 04:00N 44°36' W 063°36'0 0.0 1009.7
2018-Jun-25 03:00N 44°36' W 063°36'0 0.0 1009.9
2018-Jun-25 02:00N 44°36' W 063°36'0 0.0 1009.4
2018-Jun-25 01:00N 44°36' W 063°36'0 0.0 1009.0
2018-Jun-25 00:00N 44°36' W 063°36'0 0.0 1008.3
2018-Jun-24 23:00N 44°36' W 063°36'0 0.0 1007.9
2018-Jun-24 22:00N 44°36' W 063°36'0 0.0 1006.8
2018-Jun-24 21:00N 44°36' W 063°36'0 0.0 1006.5
2018-Jun-24 20:00N 44°36' W 063°36'0 0.0 1006.2
2018-Jun-24 19:00N 44°36' W 063°36'0 0.0 1006.0
2018-Jun-24 18:00N 44°36' W 063°36'0 0.0 1006.0
2018-Jun-24 17:00N 44°36' W 063°36'0 0.0 1005.8
2018-Jun-24 16:00N 44°36' W 063°36'0 0.0 1005.6
2018-Jun-24 15:00N 44°36' W 063°36'0 0.0 1005.6
2018-Jun-24 14:00N 44°36' W 063°36'0 0.0 1005.4
2018-Jun-24 13:00N 44°36' W 063°36'0 0.0 1005.1
2018-Jun-24 12:00N 44°36' W 063°36'0 0.0 1005.1
2018-Jun-24 11:00N 44°36' W 063°36'0 0.0 1005.1
2018-Jun-24 10:00N 44°36' W 063°36'0 0.0 1005.3
2018-Jun-24 09:00N 44°36' W 063°36'0 0.0 1004.9
2018-Jun-24 08:00N 44°36' W 063°36'0 0.0 1005.5
2018-Jun-24 07:00N 44°36' W 063°36'0 0.0 1006.9
2018-Jun-24 06:00N 44°36' W 063°36'0 0.0 1007.9
2018-Jun-24 05:00N 44°36' W 063°36'0 0.0 1009.0
2018-Jun-24 04:00N 44°36' W 063°36'0 0.0 1010.3
2018-Jun-24 03:00N 44°36' W 063°36'0 0.0 1011.5
2018-Jun-24 02:00N 44°36' W 063°36'0 0.0 1012.7
2018-Jun-24 01:00N 44°36' W 063°36'0 0.0 1013.2
2018-Jun-24 00:00N 44°36' W 063°36'0 0.0 1013.6
2018-Jun-23 23:00N 44°36' W 063°36'0 0.0 1014.5
2018-Jun-23 22:00N 44°36' W 063°36'0 0.0 1015.0
2018-Jun-23 21:00N 44°36' W 063°36'0 0.0 1015.7
2018-Jun-23 20:00N 44°36' W 063°36'0 0.0 1016.8
2018-Jun-23 19:00N 44°36' W 063°36'0 0.0 1017.6
2018-Jun-23 18:00N 44°36' W 063°36'0 0.0 1018.0
2018-Jun-23 17:00N 44°36' W 063°36'0 0.0 1018.5
2018-Jun-23 16:00N 44°36' W 063°36'0 0.0 1019.3
2018-Jun-23 15:00N 44°36' W 063°36'0 0.0 1019.6
2018-Jun-23 14:00N 44°36' W 063°36'0 0.0 1020.0
2018-Jun-23 13:00N 44°36' W 063°36'0 0.0 1019.9
2018-Jun-23 12:00N 44°36' W 063°36'0 0.0 1020.2
2018-Jun-23 11:00N 44°36' W 063°36'0 0.0 1020.3
2018-Jun-23 10:00N 44°36' W 063°36'0 0.0 1020.0
2018-Jun-23 09:00N 44°36' W 063°36'0 0.0 1019.8
2018-Jun-23 08:00N 44°36' W 063°36'0 0.0 1019.8
2018-Jun-23 07:00N 44°36' W 063°36'0 0.0 1020.0
2018-Jun-23 06:00N 44°36' W 063°36'0 0.0 1020.0
2018-Jun-23 05:00N 44°36' W 063°36'0 0.0 1019.6
2018-Jun-23 04:00N 44°36' W 063°36'0 0.0 1019.5
2018-Jun-23 03:00N 44°36' W 063°36'0 0.0 1019.5
2018-Jun-23 02:00N 44°36' W 063°36'0 0.0 1019.2
2018-Jun-23 01:00N 44°36' W 063°36'0 0.0 1019.0
2018-Jun-23 00:00N 44°36' W 063°36'0 0.0 1018.5
2018-Jun-22 23:00N 44°36' W 063°36'0 0.0 1017.9
2018-Jun-22 22:00N 44°36' W 063°36'0 0.0 1017.3
2018-Jun-22 21:00N 44°36' W 063°36'0 0.0 1016.7
2018-Jun-22 20:00N 44°36' W 063°36'0 0.0 1016.5
2018-Jun-22 19:00N 44°36' W 063°36'0 0.0 1016.6
2018-Jun-22 18:00N 44°36' W 063°36'0 0.0 1016.7
2018-Jun-22 17:00N 44°36' W 063°36'0 0.0 1016.9
2018-Jun-22 16:00N 44°36' W 063°36'0 0.0 1017.4
2018-Jun-22 15:00N 44°36' W 063°36'0 0.0 1017.4
2018-Jun-22 14:00N 44°36' W 063°36'0 0.0 1017.3
2018-Jun-22 13:00N 44°36' W 063°36'0 0.0 1017.0
2018-Jun-22 12:00N 44°36' W 063°36'7 7.4 1016.5
2018-Jun-22 11:00N 44°30' W 063°30'7 7.4 1015.9
2018-Jun-22 10:00N 44°24' W 063°24'1010.5 1014.9
2018-Jun-22 09:00N 44°18' W 063°12'0 0.0 1014.1
2018-Jun-22 08:00N 44°18' W 063°12'4 4.3 1013.2
2018-Jun-22 07:00N 44°18' W 063°06'4 4.3 1012.7
2018-Jun-22 06:00N 44°18' W 063°12'0 0.0 1012.1
2018-Jun-22 05:00N 44°18' W 063°12'4 4.3 1011.5
2018-Jun-22 04:00N 44°18' W 063°06'1010.5 1011.5
2018-Jun-22 03:00N 44°24' W 062°54'1010.5 1011.1
2018-Jun-22 02:00N 44°30' W 062°42'1414.2 1010.8
2018-Jun-22 01:00N 44°36' W 062°24'9 8.5 1010.4
2018-Jun-22 00:00N 44°36' W 062°12'1010.4 1009.5
2018-Jun-21 23:00N 44°42' W 062°00'1414.1 1008.9
2018-Jun-21 22:00N 44°48' W 061°42'9 8.5 1008.1
2018-Jun-21 21:00N 44°48' W 061°30'1010.4 1007.5
2018-Jun-21 20:00N 44°54' W 061°18'1010.4 1007.1
2018-Jun-21 19:00N 45°00' W 061°06'1010.4 1006.5
2018-Jun-21 18:00N 45°06' W 060°54'7 7.3 1006.4
2018-Jun-21 17:00N 45°12' W 060°48'1010.4 1006.3
2018-Jun-21 16:00N 45°18' W 060°36'1010.3 1006.2
2018-Jun-21 15:00N 45°24' W 060°24'8 8.4 1006.7
2018-Jun-21 14:00N 45°24' W 060°12'1312.6 1006.5
2018-Jun-21 13:00N 45°24' W 059°54'1010.3 1006.4
2018-Jun-21 12:00N 45°30' W 059°42'8 8.4 1006.5
2018-Jun-21 11:00N 45°30' W 059°30'1010.3 1006.2
2018-Jun-21 10:00N 45°36' W 059°18'1010.3 1005.5
2018-Jun-21 09:00N 45°42' W 059°06'1010.3 1004.9
2018-Jun-21 08:00N 45°48' W 058°54'8 8.4 1004.6
2018-Jun-21 07:00N 45°48' W 058°42'1010.3 1004.5
2018-Jun-21 06:00N 45°54' W 058°30'1010.3 1004.7
2018-Jun-21 05:00N 46°00' W 058°18'1010.3 1004.8
2018-Jun-21 04:00N 46°06' W 058°06'8 8.3 1005.3
2018-Jun-21 03:00N 46°06' W 057°54'1010.3 1005.5
2018-Jun-21 02:00N 46°12' W 057°42'1010.2 1006.3
2018-Jun-21 01:00N 46°18' W 057°30'2423.9 1006.8
2018-Jun-21 00:00N 46°30' W 057°00'0 0.0 1006.3
2018-Jun-20 23:00N 46°30' W 057°00'8 8.3 1006.1
2018-Jun-20 22:00N 46°30' W 056°48'1010.2 1005.8
2018-Jun-20 21:00N 46°36' W 056°36'1010.2 1005.5
2018-Jun-20 20:00N 46°42' W 056°24'1010.2 1004.6
2018-Jun-20 19:00N 46°48' W 056°12'0 0.0 1003.9
2018-Jun-20 18:00N 46°48' W 056°12'0 0.0 1003.4
2018-Jun-20 17:00N 46°48' W 056°12'   1003.5
Track history (hours):
 
Tides and Currents Weather Stations Pressure Air Temp Water Temp Dewpoint Dewpoint Depression Visibility Wind Speed Wind Dir Waves Ship Positions

Callsign IDDEU03 (name unknown)

Last reported at 2018-Jun-29 17:00 UTC. Time now 2018-Aug-20 16:18 UTC.
Position N 46°48' W 056°12'.
Warning: this ship's position is 51 days out of date.

Barometer 1020.2 mb

Date/timePositionNaut miles runAvg speedWind from/ knotsBaromVisibWave heightAir tempDewpointWater temp
2018-Jun-29 17:00N 46°48' W 056°12'0 0.0 1020.2
2018-Jun-29 16:00N 46°48' W 056°12'0 0.0 1021.3
2018-Jun-29 15:00N 46°48' W 056°12'0 0.0 1021.7
2018-Jun-29 14:00N 46°48' W 056°12'0 0.0 1022.2
2018-Jun-29 13:00N 46°48' W 056°12'0 0.0 1022.8
2018-Jun-29 12:00N 46°48' W 056°12'0 0.0 1023.3
2018-Jun-29 11:00N 46°48' W 056°12'0 0.0 1023.8
2018-Jun-29 10:00N 46°48' W 056°12'0 0.0 1024.1
2018-Jun-29 09:00N 46°48' W 056°12'0 0.0 1024.3
2018-Jun-29 08:00N 46°48' W 056°12'0 0.0 1024.7
2018-Jun-29 07:00N 46°48' W 056°12'0 0.0 1025.2
2018-Jun-29 06:00N 46°48' W 056°12'0 0.0 1025.4
2018-Jun-29 05:00N 46°48' W 056°12'0 0.0 1025.3
2018-Jun-29 04:00N 46°48' W 056°12'0 0.0 1025.5
2018-Jun-29 03:00N 46°48' W 056°12'0 0.0 1025.6
2018-Jun-29 02:00N 46°48' W 056°12'0 0.0 1025.6
2018-Jun-29 01:00N 46°48' W 056°12'0 0.0 1025.4
2018-Jun-29 00:00N 46°48' W 056°12'0 0.0 1024.8
2018-Jun-28 22:00N 46°48' W 056°12'0 0.0 1023.9
2018-Jun-28 20:00N 46°48' W 056°12'0 0.0 1022.7
2018-Jun-28 19:00N 46°48' W 056°12'0 0.0 1022.4
2018-Jun-28 18:00N 46°48' W 056°12'0 0.0 1021.9
2018-Jun-28 17:00N 46°48' W 056°12'0 0.0 1021.8
2018-Jun-28 16:00N 46°48' W 056°12'4 4.1 1021.1
2018-Jun-28 15:00N 46°48' W 056°06'8 8.2 1020.7
2018-Jun-28 14:00N 46°48' W 056°18'1010.2 1020.8
2018-Jun-28 13:00N 46°42' W 056°30'1413.7 1020.0
2018-Jun-28 12:00N 46°36' W 056°48'1010.2 1019.3
2018-Jun-28 11:00N 46°30' W 057°00'7 7.3 1018.8
2018-Jun-28 10:00N 46°24' W 057°06'4 4.1 1018.3
2018-Jun-28 09:00N 46°24' W 057°12'7 7.3 1018.0
2018-Jun-28 08:00N 46°18' W 057°18'1010.2 1017.7
2018-Jun-28 07:00N 46°12' W 057°30'1010.3 1017.2
2018-Jun-28 06:00N 46°06' W 057°42'1010.3 1016.9
2018-Jun-28 05:00N 46°00' W 057°54'4 4.2 1016.7
2018-Jun-28 04:00N 46°00' W 058°00'1010.3 1016.4
2018-Jun-28 03:00N 45°54' W 058°12'8 8.4 1015.9
2018-Jun-28 02:00N 45°54' W 058°24'4 4.2 1015.2
2018-Jun-28 01:00N 45°54' W 058°30'1010.3 1014.8
2018-Jun-28 00:00N 45°48' W 058°42'1312.7 1014.6
2018-Jun-27 23:00N 45°36' W 058°48'7 7.3 1014.8
2018-Jun-27 22:00N 45°30' W 058°54'1010.3 1014.5
2018-Jun-27 21:00N 45°24' W 059°06'4 4.2 1014.2
2018-Jun-27 20:00N 45°24' W 059°12'1010.3 1013.8
2018-Jun-27 19:00N 45°18' W 059°24'1010.4 1013.9
2018-Jun-27 18:00N 45°12' W 059°36'4 4.2 1014.1
2018-Jun-27 17:00N 45°12' W 059°42'1312.7 1013.7
2018-Jun-27 16:00N 45°12' W 060°00'1010.4 1013.8
2018-Jun-27 15:00N 45°18' W 060°12'0 0.0 1013.7
2018-Jun-27 14:00N 45°18' W 060°12'1514.7 1014.2
2018-Jun-27 13:00N 45°06' W 060°24'1312.7 1014.8
2018-Jun-27 12:00N 45°06' W 060°42'1010.4 1015.2
2018-Jun-27 11:00N 45°00' W 060°54'1010.4 1015.3
2018-Jun-27 10:00N 44°54' W 061°06'1414.1 1015.5
2018-Jun-27 09:00N 44°48' W 061°24'9 8.5 1015.9
2018-Jun-27 08:00N 44°48' W 061°36'7 7.4 1016.0
2018-Jun-27 07:00N 44°54' W 061°42'7 7.4 1015.7
2018-Jun-27 06:00N 44°48' W 061°48'4 4.3 1016.1
2018-Jun-27 05:00N 44°48' W 061°54'1010.4 1016.6
2018-Jun-27 04:00N 44°42' W 062°06'0 0.0 1017.4
2018-Jun-27 03:00N 44°42' W 062°06'1312.8 1017.9
2018-Jun-27 02:00N 44°42' W 062°24'1010.4 1018.1
2018-Jun-27 01:00N 44°36' W 062°36'4 4.3 1018.3
2018-Jun-27 00:00N 44°36' W 062°42'7 7.4 1017.4
2018-Jun-26 23:00N 44°42' W 062°36'0 0.0 1016.6
2018-Jun-26 22:00N 44°42' W 062°36'1010.4 1016.1
2018-Jun-26 21:00N 44°36' W 062°48'9 8.5 1016.2
2018-Jun-26 20:00N 44°36' W 063°00'6 6.0 1016.4
2018-Jun-26 19:00N 44°30' W 063°00'9 8.6 1016.5
2018-Jun-26 18:00N 44°30' W 063°12'1010.5 1016.9
2018-Jun-26 17:00N 44°24' W 063°24'7 7.4 1017.2
2018-Jun-26 16:00N 44°30' W 063°30'7 7.4 1017.4
2018-Jun-26 15:00N 44°36' W 063°36'0 0.0 1017.8
2018-Jun-26 14:00N 44°36' W 063°36'0 0.0 1017.9
2018-Jun-26 13:00N 44°36' W 063°36'0 0.0 1017.9
2018-Jun-26 12:00N 44°36' W 063°36'0 0.0 1018.0
2018-Jun-26 11:00N 44°36' W 063°36'0 0.0 1017.7
2018-Jun-26 10:00N 44°36' W 063°36'0 0.0 1017.0
2018-Jun-26 09:00N 44°36' W 063°36'0 0.0 1016.0
2018-Jun-26 08:00N 44°36' W 063°36'0 0.0 1015.0
2018-Jun-26 07:00N 44°36' W 063°36'0 0.0 1014.8
2018-Jun-26 06:00N 44°36' W 063°36'0 0.0 1014.5
2018-Jun-26 05:00N 44°36' W 063°36'0 0.0 1014.0
2018-Jun-26 04:00N 44°36' W 063°36'0 0.0 1013.5
2018-Jun-26 03:00N 44°36' W 063°36'0 0.0 1012.6
2018-Jun-26 02:00N 44°36' W 063°36'0 0.0 1011.6
2018-Jun-26 01:00N 44°36' W 063°36'0 0.0 1010.7
2018-Jun-26 00:00N 44°36' W 063°36'0 0.0 1009.4
2018-Jun-25 23:00N 44°36' W 063°36'0 0.0 1008.7
2018-Jun-25 22:00N 44°36' W 063°36'0 0.0 1007.8
2018-Jun-25 21:00N 44°36' W 063°36'0 0.0 1007.1
2018-Jun-25 20:00N 44°36' W 063°36'0 0.0 1006.2
2018-Jun-25 19:00N 44°36' W 063°36'0 0.0 1006.3
2018-Jun-25 18:00N 44°36' W 063°36'0 0.0 1006.4
2018-Jun-25 17:00N 44°36' W 063°36'0 0.0 1006.3
2018-Jun-25 16:00N 44°36' W 063°36'0 0.0 1007.0
2018-Jun-25 15:00N 44°36' W 063°36'0 0.0 1007.7
2018-Jun-25 14:00N 44°36' W 063°36'0 0.0 1007.5
2018-Jun-25 13:00N 44°36' W 063°36'0 0.0 1008.3
2018-Jun-25 12:00N 44°36' W 063°36'0 0.0 1008.5
2018-Jun-25 11:00N 44°36' W 063°36'0 0.0 1008.1
2018-Jun-25 10:00N 44°36' W 063°36'0 0.0 1008.8
2018-Jun-25 09:00N 44°36' W 063°36'0 0.0 1009.0
2018-Jun-25 08:00N 44°36' W 063°36'0 0.0 1009.3
2018-Jun-25 07:00N 44°36' W 063°36'0 0.0 1009.0
2018-Jun-25 06:00N 44°36' W 063°36'0 0.0 1009.0
2018-Jun-25 05:00N 44°36' W 063°36'0 0.0 1009.6
2018-Jun-25 04:00N 44°36' W 063°36'0 0.0 1009.7
2018-Jun-25 03:00N 44°36' W 063°36'0 0.0 1009.9
2018-Jun-25 02:00N 44°36' W 063°36'0 0.0 1009.4
2018-Jun-25 01:00N 44°36' W 063°36'0 0.0 1009.0
2018-Jun-25 00:00N 44°36' W 063°36'0 0.0 1008.3
2018-Jun-24 23:00N 44°36' W 063°36'0 0.0 1007.9
2018-Jun-24 22:00N 44°36' W 063°36'0 0.0 1006.8
2018-Jun-24 21:00N 44°36' W 063°36'0 0.0 1006.5
2018-Jun-24 20:00N 44°36' W 063°36'0 0.0 1006.2
2018-Jun-24 19:00N 44°36' W 063°36'0 0.0 1006.0
2018-Jun-24 18:00N 44°36' W 063°36'0 0.0 1006.0
2018-Jun-24 17:00N 44°36' W 063°36'0 0.0 1005.8
2018-Jun-24 16:00N 44°36' W 063°36'0 0.0 1005.6
2018-Jun-24 15:00N 44°36' W 063°36'0 0.0 1005.6
2018-Jun-24 14:00N 44°36' W 063°36'0 0.0 1005.4
2018-Jun-24 13:00N 44°36' W 063°36'0 0.0 1005.1
2018-Jun-24 12:00N 44°36' W 063°36'0 0.0 1005.1
2018-Jun-24 11:00N 44°36' W 063°36'0 0.0 1005.1
2018-Jun-24 10:00N 44°36' W 063°36'0 0.0 1005.3
2018-Jun-24 09:00N 44°36' W 063°36'0 0.0 1004.9
2018-Jun-24 08:00N 44°36' W 063°36'0 0.0 1005.5
2018-Jun-24 07:00N 44°36' W 063°36'0 0.0 1006.9
2018-Jun-24 06:00N 44°36' W 063°36'0 0.0 1007.9
2018-Jun-24 05:00N 44°36' W 063°36'0 0.0 1009.0
2018-Jun-24 04:00N 44°36' W 063°36'0 0.0 1010.3
2018-Jun-24 03:00N 44°36' W 063°36'0 0.0 1011.5
2018-Jun-24 02:00N 44°36' W 063°36'0 0.0 1012.7
2018-Jun-24 01:00N 44°36' W 063°36'0 0.0 1013.2
2018-Jun-24 00:00N 44°36' W 063°36'0 0.0 1013.6
2018-Jun-23 23:00N 44°36' W 063°36'0 0.0 1014.5
2018-Jun-23 22:00N 44°36' W 063°36'0 0.0 1015.0
2018-Jun-23 21:00N 44°36' W 063°36'0 0.0 1015.7
2018-Jun-23 20:00N 44°36' W 063°36'0 0.0 1016.8
2018-Jun-23 19:00N 44°36' W 063°36'0 0.0 1017.6
2018-Jun-23 18:00N 44°36' W 063°36'0 0.0 1018.0
2018-Jun-23 17:00N 44°36' W 063°36'0 0.0 1018.5
2018-Jun-23 16:00N 44°36' W 063°36'0 0.0 1019.3
2018-Jun-23 15:00N 44°36' W 063°36'0 0.0 1019.6
2018-Jun-23 14:00N 44°36' W 063°36'0 0.0 1020.0
2018-Jun-23 13:00N 44°36' W 063°36'0 0.0 1019.9
2018-Jun-23 12:00N 44°36' W 063°36'0 0.0 1020.2
2018-Jun-23 11:00N 44°36' W 063°36'0 0.0 1020.3
2018-Jun-23 10:00N 44°36' W 063°36'0 0.0 1020.0
2018-Jun-23 09:00N 44°36' W 063°36'0 0.0 1019.8
2018-Jun-23 08:00N 44°36' W 063°36'0 0.0 1019.8
2018-Jun-23 07:00N 44°36' W 063°36'0 0.0 1020.0
2018-Jun-23 06:00N 44°36' W 063°36'0 0.0 1020.0
2018-Jun-23 05:00N 44°36' W 063°36'0 0.0 1019.6
2018-Jun-23 04:00N 44°36' W 063°36'0 0.0 1019.5
2018-Jun-23 03:00N 44°36' W 063°36'0 0.0 1019.5
2018-Jun-23 02:00N 44°36' W 063°36'0 0.0 1019.2
2018-Jun-23 01:00N 44°36' W 063°36'0 0.0 1019.0
2018-Jun-23 00:00N 44°36' W 063°36'0 0.0 1018.5
2018-Jun-22 23:00N 44°36' W 063°36'0 0.0 1017.9
2018-Jun-22 22:00N 44°36' W 063°36'0 0.0 1017.3
2018-Jun-22 21:00N 44°36' W 063°36'0 0.0 1016.7
2018-Jun-22 20:00N 44°36' W 063°36'0 0.0 1016.5
2018-Jun-22 19:00N 44°36' W 063°36'0 0.0 1016.6
2018-Jun-22 18:00N 44°36' W 063°36'0 0.0 1016.7
2018-Jun-22 17:00N 44°36' W 063°36'0 0.0 1016.9
2018-Jun-22 16:00N 44°36' W 063°36'0 0.0 1017.4
2018-Jun-22 15:00N 44°36' W 063°36'0 0.0 1017.4
2018-Jun-22 14:00N 44°36' W 063°36'0 0.0 1017.3
2018-Jun-22 13:00N 44°36' W 063°36'0 0.0 1017.0
2018-Jun-22 12:00N 44°36' W 063°36'7 7.4 1016.5
2018-Jun-22 11:00N 44°30' W 063°30'7 7.4 1015.9
2018-Jun-22 10:00N 44°24' W 063°24'1010.5 1014.9
2018-Jun-22 09:00N 44°18' W 063°12'0 0.0 1014.1
2018-Jun-22 08:00N 44°18' W 063°12'4 4.3 1013.2
2018-Jun-22 07:00N 44°18' W 063°06'4 4.3 1012.7
2018-Jun-22 06:00N 44°18' W 063°12'0 0.0 1012.1
2018-Jun-22 05:00N 44°18' W 063°12'4 4.3 1011.5
2018-Jun-22 04:00N 44°18' W 063°06'1010.5 1011.5
2018-Jun-22 03:00N 44°24' W 062°54'1010.5 1011.1
2018-Jun-22 02:00N 44°30' W 062°42'1414.2 1010.8
2018-Jun-22 01:00N 44°36' W 062°24'9 8.5 1010.4
2018-Jun-22 00:00N 44°36' W 062°12'1010.4 1009.5
2018-Jun-21 23:00N 44°42' W 062°00'1414.1 1008.9
2018-Jun-21 22:00N 44°48' W 061°42'9 8.5 1008.1
2018-Jun-21 21:00N 44°48' W 061°30'1010.4 1007.5
2018-Jun-21 20:00N 44°54' W 061°18'1010.4 1007.1
2018-Jun-21 19:00N 45°00' W 061°06'1010.4 1006.5
2018-Jun-21 18:00N 45°06' W 060°54'7 7.3 1006.4
2018-Jun-21 17:00N 45°12' W 060°48'1010.4 1006.3
2018-Jun-21 16:00N 45°18' W 060°36'1010.3 1006.2
2018-Jun-21 15:00N 45°24' W 060°24'8 8.4 1006.7
2018-Jun-21 14:00N 45°24' W 060°12'1312.6 1006.5
2018-Jun-21 13:00N 45°24' W 059°54'1010.3 1006.4
2018-Jun-21 12:00N 45°30' W 059°42'8 8.4 1006.5
2018-Jun-21 11:00N 45°30' W 059°30'1010.3 1006.2
2018-Jun-21 10:00N 45°36' W 059°18'1010.3 1005.5
2018-Jun-21 09:00N 45°42' W 059°06'1010.3 1004.9
2018-Jun-21 08:00N 45°48' W 058°54'8 8.4 1004.6
2018-Jun-21 07:00N 45°48' W 058°42'1010.3 1004.5
2018-Jun-21 06:00N 45°54' W 058°30'1010.3 1004.7
2018-Jun-21 05:00N 46°00' W 058°18'1010.3 1004.8
2018-Jun-21 04:00N 46°06' W 058°06'8 8.3 1005.3
2018-Jun-21 03:00N 46°06' W 057°54'1010.3 1005.5
2018-Jun-21 02:00N 46°12' W 057°42'1010.2 1006.3
2018-Jun-21 01:00N 46°18' W 057°30'2423.9 1006.8
2018-Jun-21 00:00N 46°30' W 057°00'0 0.0 1006.3
2018-Jun-20 23:00N 46°30' W 057°00'8 8.3 1006.1
2018-Jun-20 22:00N 46°30' W 056°48'1010.2 1005.8
2018-Jun-20 21:00N 46°36' W 056°36'1010.2 1005.5
2018-Jun-20 20:00N 46°42' W 056°24'1010.2 1004.6
2018-Jun-20 19:00N 46°48' W 056°12'0 0.0 1003.9
2018-Jun-20 18:00N 46°48' W 056°12'0 0.0 1003.4
2018-Jun-20 17:00N 46°48' W 056°12'   1003.5

Dump ship's entire track history